Sasakwa, Oklahoma
Current Conditions -  °F | °C
As of 4:15 AM on Tuesday 27 Jan 2015 (Local Time) from KADH Reporting Station
Clear Clear  
Wind Chill: 40°   Ceiling: Unl
Heat Index: 43°   Visibility: 10mi
Dew Point: 36°   Wind: 5mph
Humidity: 76%   Direction: 270°W
Pressure: 30.09"   Gusts: NA
Location:  34.95°N, 96.53°W
Report Text: KADH 271015Z AUTO 27004KT 10SM CLR 06/02 A3009 RMK AO2
Loading
Personal Weather Stations






























Interactive Weather Map New forecast layout! Learn more

10-Day Weather Forecast

Advertisements
Track Severe Weather on mobile